sensor_id;sensor_type;location;lat;lon;timestamp;P1;durP1;ratioP1;P2;durP2;ratioP2
49514;SDS011;35415;47.870;16.058;2022-11-28T00:01:08;19.13;;;9.63;;
49514;SDS011;35415;47.870;16.058;2022-11-28T00:03:40;18.52;;;11.18;;
49514;SDS011;35415;47.870;16.058;2022-11-28T00:06:08;21.50;;;11.73;;
49514;SDS011;35415;47.870;16.058;2022-11-28T00:08:38;24.40;;;11.57;;
49514;SDS011;35415;47.870;16.058;2022-11-28T00:11:07;22.70;;;11.13;;
49514;SDS011;35415;47.870;16.058;2022-11-28T00:13:38;21.50;;;11.10;;
49514;SDS011;35415;47.870;16.058;2022-11-28T00:16:07;20.92;;;11.52;;
49514;SDS011;35415;47.870;16.058;2022-11-28T00:18:40;19.50;;;10.80;;
49514;SDS011;35415;47.870;16.058;2022-11-28T00:21:08;20.15;;;11.32;;
49514;SDS011;35415;47.870;16.058;2022-11-28T00:23:37;20.92;;;11.40;;
49514;SDS011;35415;47.870;16.058;2022-11-28T00:26:05;19.95;;;10.43;;
49514;SDS011;35415;47.870;16.058;2022-11-28T00:28:34;17.33;;;9.65;;
49514;SDS011;35415;47.870;16.058;2022-11-28T00:31:02;21.65;;;10.23;;
49514;SDS011;35415;47.870;16.058;2022-11-28T00:33:30;18.08;;;10.20;;
49514;SDS011;35415;47.870;16.058;2022-11-28T00:36:01;23.10;;;11.50;;
49514;SDS011;35415;47.870;16.058;2022-11-28T00:38:30;18.08;;;10.00;;
49514;SDS011;35415;47.870;16.058;2022-11-28T00:41:03;20.95;;;11.07;;
49514;SDS011;35415;47.870;16.058;2022-11-28T00:43:34;18.20;;;9.23;;
49514;SDS011;35415;47.870;16.058;2022-11-28T00:46:02;22.75;;;11.40;;
49514;SDS011;35415;47.870;16.058;2022-11-28T00:48:30;23.90;;;10.45;;
49514;SDS011;35415;47.870;16.058;2022-11-28T00:51:06;16.15;;;10.05;;
49514;SDS011;35415;47.870;16.058;2022-11-28T00:53:35;22.75;;;11.57;;
49514;SDS011;35415;47.870;16.058;2022-11-28T00:56:05;17.90;;;10.23;;
49514;SDS011;35415;47.870;16.058;2022-11-28T00:58:35;18.83;;;10.82;;
49514;SDS011;35415;47.870;16.058;2022-11-28T01:01:06;17.80;;;10.25;;
49514;SDS011;35415;47.870;16.058;2022-11-28T01:03:38;22.85;;;11.43;;
49514;SDS011;35415;47.870;16.058;2022-11-28T01:06:11;19.58;;;11.35;;
49514;SDS011;35415;47.870;16.058;2022-11-28T01:08:39;24.65;;;12.32;;
49514;SDS011;35415;47.870;16.058;2022-11-28T01:11:09;20.02;;;11.07;;
49514;SDS011;35415;47.870;16.058;2022-11-28T01:13:38;23.38;;;13.20;;
49514;SDS011;35415;47.870;16.058;2022-11-28T01:16:13;22.27;;;11.32;;
49514;SDS011;35415;47.870;16.058;2022-11-28T01:18:41;18.05;;;10.57;;
49514;SDS011;35415;47.870;16.058;2022-11-28T01:21:12;19.52;;;10.68;;
49514;SDS011;35415;47.870;16.058;2022-11-28T01:23:40;18.00;;;9.73;;
49514;SDS011;35415;47.870;16.058;2022-11-28T01:26:08;18.10;;;10.35;;
49514;SDS011;35415;47.870;16.058;2022-11-28T01:28:37;19.08;;;10.25;;
49514;SDS011;35415;47.870;16.058;2022-11-28T01:31:04;15.60;;;9.57;;
49514;SDS011;35415;47.870;16.058;2022-11-28T01:33:33;17.52;;;9.68;;
49514;SDS011;35415;47.870;16.058;2022-11-28T01:36:03;16.52;;;10.40;;
49514;SDS011;35415;47.870;16.058;2022-11-28T01:38:35;17.52;;;10.27;;
49514;SDS011;35415;47.870;16.058;2022-11-28T01:41:03;16.00;;;9.30;;
49514;SDS011;35415;47.870;16.058;2022-11-28T01:43:31;16.73;;;9.00;;
49514;SDS011;35415;47.870;16.058;2022-11-28T01:46:00;15.35;;;9.05;;
49514;SDS011;35415;47.870;16.058;2022-11-28T01:48:28;14.77;;;8.57;;
49514;SDS011;35415;47.870;16.058;2022-11-28T01:51:00;14.88;;;8.93;;
49514;SDS011;35415;47.870;16.058;2022-11-28T01:53:32;15.87;;;9.23;;
49514;SDS011;35415;47.870;16.058;2022-11-28T01:56:08;14.23;;;8.52;;
49514;SDS011;35415;47.870;16.058;2022-11-28T01:58:41;14.80;;;8.73;;
49514;SDS011;35415;47.870;16.058;2022-11-28T02:01:12;17.50;;;9.00;;
49514;SDS011;35415;47.870;16.058;2022-11-28T02:03:40;15.77;;;9.18;;
49514;SDS011;35415;47.870;16.058;2022-11-28T02:06:12;16.58;;;8.45;;
49514;SDS011;35415;47.870;16.058;2022-11-28T02:08:45;20.52;;;9.20;;
49514;SDS011;35415;47.870;16.058;2022-11-28T02:11:34;16.80;;;8.98;;
49514;SDS011;35415;47.870;16.058;2022-11-28T02:14:18;17.58;;;8.90;;
49514;SDS011;35415;47.870;16.058;2022-11-28T02:17:00;14.38;;;7.88;;
49514;SDS011;35415;47.870;16.058;2022-11-28T02:22:39;15.73;;;8.13;;
49514;SDS011;35415;47.870;16.058;2022-11-28T02:28:22;16.80;;;9.40;;
49514;SDS011;35415;47.870;16.058;2022-11-28T02:31:14;14.18;;;7.97;;
49514;SDS011;35415;47.870;16.058;2022-11-28T02:33:56;14.07;;;7.80;;
49514;SDS011;35415;47.870;16.058;2022-11-28T02:36:29;15.07;;;8.07;;
49514;SDS011;35415;47.870;16.058;2022-11-28T02:39:02;15.00;;;8.20;;
49514;SDS011;35415;47.870;16.058;2022-11-28T02:41:37;14.68;;;7.80;;
49514;SDS011;35415;47.870;16.058;2022-11-28T02:44:10;11.77;;;7.32;;
49514;SDS011;35415;47.870;16.058;2022-11-28T02:46:43;14.90;;;7.60;;
49514;SDS011;35415;47.870;16.058;2022-11-28T02:49:18;11.65;;;6.85;;
49514;SDS011;35415;47.870;16.058;2022-11-28T02:51:50;16.08;;;7.10;;
49514;SDS011;35415;47.870;16.058;2022-11-28T02:54:22;12.80;;;6.72;;
49514;SDS011;35415;47.870;16.058;2022-11-28T02:56:56;13.25;;;7.22;;
49514;SDS011;35415;47.870;16.058;2022-11-28T02:59:31;11.00;;;6.90;;
49514;SDS011;35415;47.870;16.058;2022-11-28T03:02:12;12.00;;;7.07;;
49514;SDS011;35415;47.870;16.058;2022-11-28T03:04:48;14.30;;;6.95;;
49514;SDS011;35415;47.870;16.058;2022-11-28T03:07:27;13.45;;;6.88;;
49514;SDS011;35415;47.870;16.058;2022-11-28T03:10:18;12.15;;;7.03;;
49514;SDS011;35415;47.870;16.058;2022-11-28T03:12:55;11.80;;;6.28;;
49514;SDS011;35415;47.870;16.058;2022-11-28T03:15:37;13.57;;;7.28;;
49514;SDS011;35415;47.870;16.058;2022-11-28T03:18:18;10.80;;;5.88;;
49514;SDS011;35415;47.870;16.058;2022-11-28T03:20:55;10.77;;;6.32;;
49514;SDS011;35415;47.870;16.058;2022-11-28T03:23:30;13.20;;;6.13;;
49514;SDS011;35415;47.870;16.058;2022-11-28T03:26:05;10.85;;;6.70;;
49514;SDS011;35415;47.870;16.058;2022-11-28T03:28:39;10.55;;;5.65;;
49514;SDS011;35415;47.870;16.058;2022-11-28T03:33:46;13.02;;;6.22;;
49514;SDS011;35415;47.870;16.058;2022-11-28T03:36:20;12.73;;;6.72;;
49514;SDS011;35415;47.870;16.058;2022-11-28T03:38:53;11.73;;;6.82;;
49514;SDS011;35415;47.870;16.058;2022-11-28T03:41:29;13.73;;;7.10;;
49514;SDS011;35415;47.870;16.058;2022-11-28T03:44:04;11.57;;;6.53;;
49514;SDS011;35415;47.870;16.058;2022-11-28T03:46:35;13.75;;;6.82;;
49514;SDS011;35415;47.870;16.058;2022-11-28T03:49:09;10.05;;;5.85;;
49514;SDS011;35415;47.870;16.058;2022-11-28T03:51:43;11.43;;;6.10;;
49514;SDS011;35415;47.870;16.058;2022-11-28T03:54:15;11.50;;;6.50;;
49514;SDS011;35415;47.870;16.058;2022-11-28T03:56:51;8.18;;;5.43;;
49514;SDS011;35415;47.870;16.058;2022-11-28T03:59:27;11.25;;;6.10;;
49514;SDS011;35415;47.870;16.058;2022-11-28T04:02:00;11.20;;;6.57;;
49514;SDS011;35415;47.870;16.058;2022-11-28T04:04:34;13.63;;;6.43;;
49514;SDS011;35415;47.870;16.058;2022-11-28T04:07:10;11.25;;;6.47;;
49514;SDS011;35415;47.870;16.058;2022-11-28T04:09:48;11.68;;;6.38;;
49514;SDS011;35415;47.870;16.058;2022-11-28T04:12:23;9.93;;;6.13;;
49514;SDS011;35415;47.870;16.058;2022-11-28T04:15:01;12.50;;;6.60;;
49514;SDS011;35415;47.870;16.058;2022-11-28T04:17:34;7.25;;;4.68;;
49514;SDS011;35415;47.870;16.058;2022-11-28T04:20:05;9.80;;;5.80;;
49514;SDS011;35415;47.870;16.058;2022-11-28T04:22:42;10.07;;;6.18;;
49514;SDS011;35415;47.870;16.058;2022-11-28T04:25:16;12.18;;;6.45;;
49514;SDS011;35415;47.870;16.058;2022-11-28T04:27:52;13.15;;;6.88;;
49514;SDS011;35415;47.870;16.058;2022-11-28T04:30:23;11.20;;;5.93;;
49514;SDS011;35415;47.870;16.058;2022-11-28T04:32:52;10.65;;;6.00;;
49514;SDS011;35415;47.870;16.058;2022-11-28T04:35:24;12.63;;;5.82;;
49514;SDS011;35415;47.870;16.058;2022-11-28T04:40:27;15.15;;;6.40;;
49514;SDS011;35415;47.870;16.058;2022-11-28T04:43:01;11.15;;;6.57;;
49514;SDS011;35415;47.870;16.058;2022-11-28T04:45:33;7.72;;;4.57;;
49514;SDS011;35415;47.870;16.058;2022-11-28T04:48:04;12.33;;;5.87;;
49514;SDS011;35415;47.870;16.058;2022-11-28T04:50:35;13.88;;;6.38;;
49514;SDS011;35415;47.870;16.058;2022-11-28T04:53:11;11.35;;;6.30;;
49514;SDS011;35415;47.870;16.058;2022-11-28T04:55:44;9.75;;;5.25;;
49514;SDS011;35415;47.870;16.058;2022-11-28T04:58:18;7.60;;;5.15;;
49514;SDS011;35415;47.870;16.058;2022-11-28T05:00:50;10.07;;;6.05;;
49514;SDS011;35415;47.870;16.058;2022-11-28T05:03:21;10.98;;;5.93;;
49514;SDS011;35415;47.870;16.058;2022-11-28T05:08:22;9.20;;;5.63;;
49514;SDS011;35415;47.870;16.058;2022-11-28T05:10:51;8.70;;;5.75;;
49514;SDS011;35415;47.870;16.058;2022-11-28T05:13:18;9.77;;;5.65;;
49514;SDS011;35415;47.870;16.058;2022-11-28T05:15:46;8.02;;;4.68;;
49514;SDS011;35415;47.870;16.058;2022-11-28T05:18:13;8.95;;;5.80;;
49514;SDS011;35415;47.870;16.058;2022-11-28T05:20:40;10.65;;;6.10;;
49514;SDS011;35415;47.870;16.058;2022-11-28T05:23:08;11.00;;;5.95;;
49514;SDS011;35415;47.870;16.058;2022-11-28T05:25:39;9.15;;;5.20;;
49514;SDS011;35415;47.870;16.058;2022-11-28T05:28:07;36.53;;;13.55;;
49514;SDS011;35415;47.870;16.058;2022-11-28T05:30:34;10.82;;;6.30;;
49514;SDS011;35415;47.870;16.058;2022-11-28T05:33:02;9.52;;;5.18;;
49514;SDS011;35415;47.870;16.058;2022-11-28T05:35:33;8.88;;;4.97;;
49514;SDS011;35415;47.870;16.058;2022-11-28T05:38:00;14.25;;;7.07;;
49514;SDS011;35415;47.870;16.058;2022-11-28T05:40:27;49.53;;;21.73;;
49514;SDS011;35415;47.870;16.058;2022-11-28T05:42:56;12.65;;;6.40;;
49514;SDS011;35415;47.870;16.058;2022-11-28T05:45:24;14.23;;;6.45;;
49514;SDS011;35415;47.870;16.058;2022-11-28T05:47:52;26.33;;;12.32;;
49514;SDS011;35415;47.870;16.058;2022-11-28T05:50:20;12.57;;;6.55;;
49514;SDS011;35415;47.870;16.058;2022-11-28T05:52:47;10.50;;;5.72;;
49514;SDS011;35415;47.870;16.058;2022-11-28T05:55:14;9.27;;;5.45;;
49514;SDS011;35415;47.870;16.058;2022-11-28T05:57:43;9.38;;;4.40;;
49514;SDS011;35415;47.870;16.058;2022-11-28T06:00:14;8.82;;;5.80;;
49514;SDS011;35415;47.870;16.058;2022-11-28T06:02:42;14.90;;;5.57;;
49514;SDS011;35415;47.870;16.058;2022-11-28T06:05:11;14.88;;;5.70;;
49514;SDS011;35415;47.870;16.058;2022-11-28T06:07:44;9.18;;;4.38;;
49514;SDS011;35415;47.870;16.058;2022-11-28T06:10:15;8.27;;;4.72;;
49514;SDS011;35415;47.870;16.058;2022-11-28T06:12:43;9.73;;;5.10;;
49514;SDS011;35415;47.870;16.058;2022-11-28T06:15:16;8.93;;;5.03;;
49514;SDS011;35415;47.870;16.058;2022-11-28T06:17:43;8.13;;;4.20;;
49514;SDS011;35415;47.870;16.058;2022-11-28T06:20:16;9.05;;;4.88;;
49514;SDS011;35415;47.870;16.058;2022-11-28T06:22:44;10.02;;;5.90;;
49514;SDS011;35415;47.870;16.058;2022-11-28T06:25:13;9.05;;;5.88;;
49514;SDS011;35415;47.870;16.058;2022-11-28T06:27:41;9.75;;;5.55;;
49514;SDS011;35415;47.870;16.058;2022-11-28T06:30:09;11.90;;;5.35;;
49514;SDS011;35415;47.870;16.058;2022-11-28T06:32:38;8.18;;;4.80;;
49514;SDS011;35415;47.870;16.058;2022-11-28T06:35:07;10.88;;;5.70;;
49514;SDS011;35415;47.870;16.058;2022-11-28T06:37:35;8.88;;;5.20;;
49514;SDS011;35415;47.870;16.058;2022-11-28T06:40:02;10.98;;;6.07;;
49514;SDS011;35415;47.870;16.058;2022-11-28T06:42:30;9.02;;;5.28;;
49514;SDS011;35415;47.870;16.058;2022-11-28T06:45:00;11.70;;;4.97;;
49514;SDS011;35415;47.870;16.058;2022-11-28T06:47:27;7.82;;;5.45;;
49514;SDS011;35415;47.870;16.058;2022-11-28T06:49:56;9.82;;;5.18;;
49514;SDS011;35415;47.870;16.058;2022-11-28T06:52:23;10.82;;;5.90;;
49514;SDS011;35415;47.870;16.058;2022-11-28T06:54:51;10.15;;;5.00;;
49514;SDS011;35415;47.870;16.058;2022-11-28T06:57:22;10.57;;;5.32;;
49514;SDS011;35415;47.870;16.058;2022-11-28T06:59:49;6.97;;;4.53;;
49514;SDS011;35415;47.870;16.058;2022-11-28T07:02:16;7.88;;;4.90;;
49514;SDS011;35415;47.870;16.058;2022-11-28T07:04:43;7.97;;;4.57;;
49514;SDS011;35415;47.870;16.058;2022-11-28T07:07:12;8.30;;;5.10;;
49514;SDS011;35415;47.870;16.058;2022-11-28T07:09:39;8.50;;;5.20;;
49514;SDS011;35415;47.870;16.058;2022-11-28T07:12:07;8.18;;;4.72;;
49514;SDS011;35415;47.870;16.058;2022-11-28T07:14:36;10.05;;;5.97;;
49514;SDS011;35415;47.870;16.058;2022-11-28T07:17:03;9.52;;;5.47;;
49514;SDS011;35415;47.870;16.058;2022-11-28T07:19:31;8.85;;;5.43;;
49514;SDS011;35415;47.870;16.058;2022-11-28T07:21:59;9.30;;;6.03;;
49514;SDS011;35415;47.870;16.058;2022-11-28T07:24:30;8.45;;;5.22;;
49514;SDS011;35415;47.870;16.058;2022-11-28T07:26:58;7.50;;;5.18;;
49514;SDS011;35415;47.870;16.058;2022-11-28T07:29:25;5.82;;;4.25;;
49514;SDS011;35415;47.870;16.058;2022-11-28T07:32:00;9.55;;;5.70;;
49514;SDS011;35415;47.870;16.058;2022-11-28T07:34:30;8.55;;;4.78;;
49514;SDS011;35415;47.870;16.058;2022-11-28T07:36:58;8.75;;;4.78;;
49514;SDS011;35415;47.870;16.058;2022-11-28T07:39:25;7.22;;;4.70;;
49514;SDS011;35415;47.870;16.058;2022-11-28T07:41:57;6.70;;;3.67;;
49514;SDS011;35415;47.870;16.058;2022-11-28T07:44:25;4.60;;;2.88;;
49514;SDS011;35415;47.870;16.058;2022-11-28T07:46:55;7.88;;;4.63;;
49514;SDS011;35415;47.870;16.058;2022-11-28T07:49:23;9.82;;;4.85;;
49514;SDS011;35415;47.870;16.058;2022-11-28T07:51:51;11.15;;;4.88;;
49514;SDS011;35415;47.870;16.058;2022-11-28T07:54:18;6.28;;;4.35;;
49514;SDS011;35415;47.870;16.058;2022-11-28T07:56:46;8.57;;;4.65;;
49514;SDS011;35415;47.870;16.058;2022-11-28T07:59:15;7.55;;;4.95;;
49514;SDS011;35415;47.870;16.058;2022-11-28T08:01:42;8.95;;;5.00;;
49514;SDS011;35415;47.870;16.058;2022-11-28T08:04:13;8.00;;;5.13;;
49514;SDS011;35415;47.870;16.058;2022-11-28T08:06:40;10.25;;;5.20;;
49514;SDS011;35415;47.870;16.058;2022-11-28T08:09:08;10.23;;;5.28;;
49514;SDS011;35415;47.870;16.058;2022-11-28T08:11:38;9.15;;;4.82;;
49514;SDS011;35415;47.870;16.058;2022-11-28T08:14:07;9.52;;;4.90;;
49514;SDS011;35415;47.870;16.058;2022-11-28T08:16:36;7.05;;;4.43;;
49514;SDS011;35415;47.870;16.058;2022-11-28T08:19:11;8.52;;;5.35;;
49514;SDS011;35415;47.870;16.058;2022-11-28T08:21:43;11.60;;;5.90;;
49514;SDS011;35415;47.870;16.058;2022-11-28T08:24:13;10.20;;;5.53;;
49514;SDS011;35415;47.870;16.058;2022-11-28T08:26:40;8.90;;;4.95;;
49514;SDS011;35415;47.870;16.058;2022-11-28T08:29:08;11.90;;;5.00;;
49514;SDS011;35415;47.870;16.058;2022-11-28T08:31:39;7.95;;;4.75;;
49514;SDS011;35415;47.870;16.058;2022-11-28T08:34:08;7.10;;;4.18;;
49514;SDS011;35415;47.870;16.058;2022-11-28T08:36:36;6.60;;;4.40;;
49514;SDS011;35415;47.870;16.058;2022-11-28T08:39:05;8.25;;;4.95;;
49514;SDS011;35415;47.870;16.058;2022-11-28T08:41:32;11.38;;;5.18;;
49514;SDS011;35415;47.870;16.058;2022-11-28T08:44:03;8.00;;;4.95;;
49514;SDS011;35415;47.870;16.058;2022-11-28T08:46:31;9.18;;;4.68;;
49514;SDS011;35415;47.870;16.058;2022-11-28T08:49:02;7.68;;;4.60;;
49514;SDS011;35415;47.870;16.058;2022-11-28T08:51:30;11.20;;;5.05;;
49514;SDS011;35415;47.870;16.058;2022-11-28T08:53:59;7.88;;;4.88;;
49514;SDS011;35415;47.870;16.058;2022-11-28T08:56:27;7.43;;;4.40;;
49514;SDS011;35415;47.870;16.058;2022-11-28T08:58:54;9.13;;;5.00;;
49514;SDS011;35415;47.870;16.058;2022-11-28T09:01:23;8.10;;;4.68;;
49514;SDS011;35415;47.870;16.058;2022-11-28T09:03:52;9.18;;;4.82;;
49514;SDS011;35415;47.870;16.058;2022-11-28T09:06:22;8.65;;;5.20;;
49514;SDS011;35415;47.870;16.058;2022-11-28T09:08:51;8.98;;;4.38;;
49514;SDS011;35415;47.870;16.058;2022-11-28T09:11:19;7.05;;;4.53;;
49514;SDS011;35415;47.870;16.058;2022-11-28T09:13:52;9.73;;;4.55;;
49514;SDS011;35415;47.870;16.058;2022-11-28T09:16:19;8.60;;;4.35;;
49514;SDS011;35415;47.870;16.058;2022-11-28T09:18:47;9.50;;;3.45;;
49514;SDS011;35415;47.870;16.058;2022-11-28T09:21:15;8.80;;;4.80;;
49514;SDS011;35415;47.870;16.058;2022-11-28T09:23:45;18.73;;;4.57;;
49514;SDS011;35415;47.870;16.058;2022-11-28T09:26:13;9.88;;;4.82;;
49514;SDS011;35415;47.870;16.058;2022-11-28T09:28:43;8.18;;;5.20;;
49514;SDS011;35415;47.870;16.058;2022-11-28T09:31:12;10.10;;;5.07;;
49514;SDS011;35415;47.870;16.058;2022-11-28T09:33:46;11.23;;;5.03;;
49514;SDS011;35415;47.870;16.058;2022-11-28T09:36:14;8.52;;;4.90;;
49514;SDS011;35415;47.870;16.058;2022-11-28T09:38:45;10.35;;;5.05;;
49514;SDS011;35415;47.870;16.058;2022-11-28T09:41:21;6.80;;;4.45;;
49514;SDS011;35415;47.870;16.058;2022-11-28T09:44:02;8.95;;;4.68;;
49514;SDS011;35415;47.870;16.058;2022-11-28T09:46:43;6.70;;;4.37;;
49514;SDS011;35415;47.870;16.058;2022-11-28T09:49:18;8.45;;;4.40;;
49514;SDS011;35415;47.870;16.058;2022-11-28T09:52:03;9.90;;;5.13;;
49514;SDS011;35415;47.870;16.058;2022-11-28T09:54:40;7.45;;;4.93;;
49514;SDS011;35415;47.870;16.058;2022-11-28T09:57:32;8.75;;;4.85;;
49514;SDS011;35415;47.870;16.058;2022-11-28T10:00:23;6.90;;;4.30;;
49514;SDS011;35415;47.870;16.058;2022-11-28T10:06:39;6.50;;;3.63;;
49514;SDS011;35415;47.870;16.058;2022-11-28T10:09:26;12.88;;;4.32;;
49514;SDS011;35415;47.870;16.058;2022-11-28T10:12:13;9.30;;;4.50;;
49514;SDS011;35415;47.870;16.058;2022-11-28T10:17:26;7.30;;;4.10;;
49514;SDS011;35415;47.870;16.058;2022-11-28T10:20:05;6.90;;;4.07;;
49514;SDS011;35415;47.870;16.058;2022-11-28T10:22:38;6.28;;;4.00;;
49514;SDS011;35415;47.870;16.058;2022-11-28T10:25:17;6.00;;;4.00;;
49514;SDS011;35415;47.870;16.058;2022-11-28T10:27:47;8.57;;;4.05;;
49514;SDS011;35415;47.870;16.058;2022-11-28T10:33:25;8.30;;;3.88;;
49514;SDS011;35415;47.870;16.058;2022-11-28T10:35:58;7.00;;;3.88;;
49514;SDS011;35415;47.870;16.058;2022-11-28T10:38:30;6.28;;;4.57;;
49514;SDS011;35415;47.870;16.058;2022-11-28T10:41:18;6.82;;;3.88;;
49514;SDS011;35415;47.870;16.058;2022-11-28T10:43:58;7.65;;;3.70;;
49514;SDS011;35415;47.870;16.058;2022-11-28T10:46:36;7.75;;;4.13;;
49514;SDS011;35415;47.870;16.058;2022-11-28T10:49:25;8.25;;;4.93;;
49514;SDS011;35415;47.870;16.058;2022-11-28T10:52:04;6.03;;;3.97;;
49514;SDS011;35415;47.870;16.058;2022-11-28T10:57:37;7.05;;;3.97;;
49514;SDS011;35415;47.870;16.058;2022-11-28T11:02:43;7.13;;;3.75;;
49514;SDS011;35415;47.870;16.058;2022-11-28T11:05:13;9.88;;;3.70;;
49514;SDS011;35415;47.870;16.058;2022-11-28T11:07:47;6.80;;;3.58;;
49514;SDS011;35415;47.870;16.058;2022-11-28T11:10:19;8.02;;;5.47;;
49514;SDS011;35415;47.870;16.058;2022-11-28T11:12:56;6.90;;;3.50;;
49514;SDS011;35415;47.870;16.058;2022-11-28T11:15:35;6.45;;;4.03;;
49514;SDS011;35415;47.870;16.058;2022-11-28T11:18:04;6.53;;;3.30;;
49514;SDS011;35415;47.870;16.058;2022-11-28T11:21:07;7.35;;;4.47;;
49514;SDS011;35415;47.870;16.058;2022-11-28T11:23:40;4.60;;;3.30;;
49514;SDS011;35415;47.870;16.058;2022-11-28T11:26:28;5.80;;;3.90;;
49514;SDS011;35415;47.870;16.058;2022-11-28T11:29:01;7.10;;;3.80;;
49514;SDS011;35415;47.870;16.058;2022-11-28T11:31:32;5.65;;;3.72;;
49514;SDS011;35415;47.870;16.058;2022-11-28T11:34:11;4.75;;;3.10;;
49514;SDS011;35415;47.870;16.058;2022-11-28T11:36:41;6.40;;;4.15;;
49514;SDS011;35415;47.870;16.058;2022-11-28T11:39:21;7.20;;;3.88;;
49514;SDS011;35415;47.870;16.058;2022-11-28T11:44:36;7.00;;;3.45;;
49514;SDS011;35415;47.870;16.058;2022-11-28T11:47:09;6.20;;;3.08;;
49514;SDS011;35415;47.870;16.058;2022-11-28T11:49:40;4.78;;;3.10;;
49514;SDS011;35415;47.870;16.058;2022-11-28T11:52:16;5.35;;;3.20;;
49514;SDS011;35415;47.870;16.058;2022-11-28T11:54:56;5.80;;;2.97;;
49514;SDS011;35415;47.870;16.058;2022-11-28T11:57:36;4.88;;;2.70;;
49514;SDS011;35415;47.870;16.058;2022-11-28T12:00:09;5.38;;;3.17;;
49514;SDS011;35415;47.870;16.058;2022-11-28T12:02:48;13.60;;;7.25;;
49514;SDS011;35415;47.870;16.058;2022-11-28T12:05:22;12.93;;;5.70;;
49514;SDS011;35415;47.870;16.058;2022-11-28T12:10:40;56.03;;;22.95;;
49514;SDS011;35415;47.870;16.058;2022-11-28T12:13:16;51.13;;;20.25;;
49514;SDS011;35415;47.870;16.058;2022-11-28T12:15:54;64.50;;;23.55;;
49514;SDS011;35415;47.870;16.058;2022-11-28T12:18:34;35.75;;;16.05;;
49514;SDS011;35415;47.870;16.058;2022-11-28T12:21:18;46.45;;;19.17;;
49514;SDS011;35415;47.870;16.058;2022-11-28T12:24:03;20.70;;;9.07;;
49514;SDS011;35415;47.870;16.058;2022-11-28T12:26:39;37.20;;;15.05;;
49514;SDS011;35415;47.870;16.058;2022-11-28T12:29:15;15.65;;;7.32;;
49514;SDS011;35415;47.870;16.058;2022-11-28T12:31:58;11.90;;;5.55;;
49514;SDS011;35415;47.870;16.058;2022-11-28T12:34:48;7.50;;;5.15;;
49514;SDS011;35415;47.870;16.058;2022-11-28T12:37:32;13.63;;;7.78;;
49514;SDS011;35415;47.870;16.058;2022-11-28T12:40:16;12.05;;;7.00;;
49514;SDS011;35415;47.870;16.058;2022-11-28T12:43:00;17.92;;;10.27;;
49514;SDS011;35415;47.870;16.058;2022-11-28T12:45:41;10.48;;;6.35;;
49514;SDS011;35415;47.870;16.058;2022-11-28T12:48:19;12.13;;;6.38;;
49514;SDS011;35415;47.870;16.058;2022-11-28T12:51:02;20.45;;;9.98;;
49514;SDS011;35415;47.870;16.058;2022-11-28T12:59:22;14.73;;;8.30;;
49514;SDS011;35415;47.870;16.058;2022-11-28T13:02:01;13.02;;;7.05;;
49514;SDS011;35415;47.870;16.058;2022-11-28T13:05:04;16.95;;;8.95;;
49514;SDS011;35415;47.870;16.058;2022-11-28T13:08:25;14.18;;;7.38;;
49514;SDS011;35415;47.870;16.058;2022-11-28T13:11:31;10.48;;;6.03;;
49514;SDS011;35415;47.870;16.058;2022-11-28T13:14:16;14.57;;;7.70;;
49514;SDS011;35415;47.870;16.058;2022-11-28T13:17:05;13.13;;;6.85;;
49514;SDS011;35415;47.870;16.058;2022-11-28T13:19:54;14.80;;;6.28;;
49514;SDS011;35415;47.870;16.058;2022-11-28T13:22:58;7.05;;;4.13;;
49514;SDS011;35415;47.870;16.058;2022-11-28T13:25:43;7.57;;;4.55;;
49514;SDS011;35415;47.870;16.058;2022-11-28T13:28:18;9.75;;;4.70;;
49514;SDS011;35415;47.870;16.058;2022-11-28T13:40:12;7.35;;;5.05;;
49514;SDS011;35415;47.870;16.058;2022-11-28T13:42:48;7.95;;;4.45;;
49514;SDS011;35415;47.870;16.058;2022-11-28T13:45:24;12.10;;;4.78;;
49514;SDS011;35415;47.870;16.058;2022-11-28T13:47:56;8.10;;;4.93;;
49514;SDS011;35415;47.870;16.058;2022-11-28T13:50:35;8.68;;;4.85;;
49514;SDS011;35415;47.870;16.058;2022-11-28T13:53:20;6.85;;;4.70;;
49514;SDS011;35415;47.870;16.058;2022-11-28T13:58:52;9.88;;;5.70;;
49514;SDS011;35415;47.870;16.058;2022-11-28T14:01:30;10.48;;;5.10;;
49514;SDS011;35415;47.870;16.058;2022-11-28T14:16:13;10.23;;;5.32;;
49514;SDS011;35415;47.870;16.058;2022-11-28T14:21:25;11.27;;;7.07;;
49514;SDS011;35415;47.870;16.058;2022-11-28T14:31:00;120.63;;;43.90;;
49514;SDS011;35415;47.870;16.058;2022-11-28T14:33:42;56.38;;;25.42;;
49514;SDS011;35415;47.870;16.058;2022-11-28T14:36:27;42.78;;;21.60;;
49514;SDS011;35415;47.870;16.058;2022-11-28T14:42:20;21.88;;;11.75;;
49514;SDS011;35415;47.870;16.058;2022-11-28T14:48:23;22.80;;;13.05;;
49514;SDS011;35415;47.870;16.058;2022-11-28T14:54:21;13.00;;;7.55;;
49514;SDS011;35415;47.870;16.058;2022-11-28T14:56:51;14.07;;;8.57;;
49514;SDS011;35415;47.870;16.058;2022-11-28T14:59:41;22.00;;;12.05;;
49514;SDS011;35415;47.870;16.058;2022-11-28T15:05:27;13.20;;;7.40;;
49514;SDS011;35415;47.870;16.058;2022-11-28T15:11:26;64.40;;;28.05;;
49514;SDS011;35415;47.870;16.058;2022-11-28T15:14:09;69.05;;;31.38;;
49514;SDS011;35415;47.870;16.058;2022-11-28T15:16:45;27.98;;;14.52;;
49514;SDS011;35415;47.870;16.058;2022-11-28T15:19:38;20.38;;;10.63;;
49514;SDS011;35415;47.870;16.058;2022-11-28T15:27:20;37.05;;;18.73;;
49514;SDS011;35415;47.870;16.058;2022-11-28T15:34:02;21.45;;;12.10;;
49514;SDS011;35415;47.870;16.058;2022-11-28T15:36:36;27.00;;;15.38;;
49514;SDS011;35415;47.870;16.058;2022-11-28T15:39:11;24.40;;;13.65;;
49514;SDS011;35415;47.870;16.058;2022-11-28T15:41:59;25.08;;;13.65;;
49514;SDS011;35415;47.870;16.058;2022-11-28T15:44:30;24.48;;;13.18;;
49514;SDS011;35415;47.870;16.058;2022-11-28T15:47:04;21.30;;;11.70;;
49514;SDS011;35415;47.870;16.058;2022-11-28T15:49:44;11.68;;;7.13;;
49514;SDS011;35415;47.870;16.058;2022-11-28T15:52:14;11.95;;;6.05;;
49514;SDS011;35415;47.870;16.058;2022-11-28T15:54:43;19.77;;;10.40;;
49514;SDS011;35415;47.870;16.058;2022-11-28T15:57:16;14.30;;;8.05;;
49514;SDS011;35415;47.870;16.058;2022-11-28T15:59:47;16.08;;;9.48;;
49514;SDS011;35415;47.870;16.058;2022-11-28T16:02:15;15.85;;;9.38;;
49514;SDS011;35415;47.870;16.058;2022-11-28T16:04:48;16.95;;;9.63;;
49514;SDS011;35415;47.870;16.058;2022-11-28T16:07:19;14.68;;;8.07;;
49514;SDS011;35415;47.870;16.058;2022-11-28T16:09:52;16.23;;;8.02;;
49514;SDS011;35415;47.870;16.058;2022-11-28T16:12:24;14.07;;;7.93;;
49514;SDS011;35415;47.870;16.058;2022-11-28T16:14:54;13.02;;;7.05;;
49514;SDS011;35415;47.870;16.058;2022-11-28T16:17:27;17.13;;;9.13;;
49514;SDS011;35415;47.870;16.058;2022-11-28T16:19:57;14.50;;;8.38;;
49514;SDS011;35415;47.870;16.058;2022-11-28T16:22:28;16.38;;;7.45;;
49514;SDS011;35415;47.870;16.058;2022-11-28T16:25:15;14.05;;;7.78;;
49514;SDS011;35415;47.870;16.058;2022-11-28T16:27:47;13.43;;;7.05;;
49514;SDS011;35415;47.870;16.058;2022-11-28T16:30:27;12.40;;;7.43;;
49514;SDS011;35415;47.870;16.058;2022-11-28T16:33:01;21.27;;;7.53;;
49514;SDS011;35415;47.870;16.058;2022-11-28T16:35:49;14.98;;;8.05;;
49514;SDS011;35415;47.870;16.058;2022-11-28T16:38:33;20.92;;;9.38;;
49514;SDS011;35415;47.870;16.058;2022-11-28T16:41:05;15.43;;;8.55;;